sensor_id;sensor_type;location;lat;lon;timestamp;pressure;altitude;pressure_sealevel;temperature;humidity
57232;BME280;43488;46.934;8.276;2023-10-13T13:18:16;96358.03;;;29.67;29.27
57232;BME280;43488;46.934;8.276;2023-10-13T13:20:44;96352.34;;;29.60;29.91
57232;BME280;43488;46.934;8.276;2023-10-13T13:23:23;96345.19;;;29.76;28.69
57232;BME280;43488;46.934;8.276;2023-10-13T13:26:04;96350.53;;;30.18;28.35
57232;BME280;43488;46.934;8.276;2023-10-13T13:28:46;96343.72;;;30.61;28.78
57232;BME280;43488;46.934;8.276;2023-10-13T13:31:18;96340.28;;;31.93;27.02
57232;BME280;43488;46.934;8.276;2023-10-13T13:33:46;96349.13;;;33.55;25.05
57232;BME280;43488;46.934;8.276;2023-10-13T13:36:13;96340.53;;;35.13;23.19
57232;BME280;43488;46.934;8.276;2023-10-13T13:38:45;96329.88;;;36.97;20.82
57232;BME280;43488;46.934;8.276;2023-10-13T13:41:22;96333.13;;;38.51;19.37
57232;BME280;43488;46.934;8.276;2023-10-13T13:43:50;96328.88;;;39.80;18.23
57232;BME280;43488;46.934;8.276;2023-10-13T13:46:20;96311.69;;;40.73;17.71
57232;BME280;43488;46.934;8.276;2023-10-13T13:49:00;96321.44;;;41.56;16.92
57232;BME280;43488;46.934;8.276;2023-10-13T13:51:33;96314.44;;;42.79;16.55
57232;BME280;43488;46.934;8.276;2023-10-13T13:54:05;96303.38;;;43.23;14.61
57232;BME280;43488;46.934;8.276;2023-10-13T13:56:34;96299.72;;;43.65;14.64
57232;BME280;43488;46.934;8.276;2023-10-13T13:59:05;96300.25;;;43.40;14.89
57232;BME280;43488;46.934;8.276;2023-10-13T14:01:36;96293.44;;;43.45;14.44
57232;BME280;43488;46.934;8.276;2023-10-13T14:04:05;96303.81;;;45.07;14.19
57232;BME280;43488;46.934;8.276;2023-10-13T14:06:33;96297.09;;;45.63;12.75
57232;BME280;43488;46.934;8.276;2023-10-13T14:09:01;96295.00;;;46.56;13.32
57232;BME280;43488;46.934;8.276;2023-10-13T14:12:00;96295.06;;;47.00;12.37
57232;BME280;43488;46.934;8.276;2023-10-13T14:14:46;96282.25;;;45.82;12.66
57232;BME280;43488;46.934;8.276;2023-10-13T14:17:23;96277.78;;;45.85;12.67
57232;BME280;43488;46.934;8.276;2023-10-13T14:19:59;96282.34;;;46.30;12.51
57232;BME280;43488;46.934;8.276;2023-10-13T14:22:26;96284.13;;;46.24;12.47
57232;BME280;43488;46.934;8.276;2023-10-13T14:24:53;96273.31;;;47.08;12.29
57232;BME280;43488;46.934;8.276;2023-10-13T14:27:25;96278.75;;;47.33;12.67
57232;BME280;43488;46.934;8.276;2023-10-13T14:29:53;96273.06;;;46.93;12.63
57232;BME280;43488;46.934;8.276;2023-10-13T14:32:20;96271.44;;;47.04;12.10
57232;BME280;43488;46.934;8.276;2023-10-13T14:34:51;96266.06;;;47.32;11.61
57232;BME280;43488;46.934;8.276;2023-10-13T14:37:23;96270.59;;;47.39;11.57
57232;BME280;43488;46.934;8.276;2023-10-13T14:39:53;96267.69;;;47.73;12.04
57232;BME280;43488;46.934;8.276;2023-10-13T14:42:25;96271.81;;;46.94;12.37
57232;BME280;43488;46.934;8.276;2023-10-13T14:44:54;96269.25;;;47.52;12.26
57232;BME280;43488;46.934;8.276;2023-10-13T14:47:25;96263.84;;;46.48;12.18
57232;BME280;43488;46.934;8.276;2023-10-13T14:49:56;96269.50;;;46.58;12.57
57232;BME280;43488;46.934;8.276;2023-10-13T14:52:26;96266.09;;;46.15;12.60
57232;BME280;43488;46.934;8.276;2023-10-13T14:54:54;96264.22;;;45.20;12.85
57232;BME280;43488;46.934;8.276;2023-10-13T14:57:25;96257.88;;;44.90;13.00
57232;BME280;43488;46.934;8.276;2023-10-13T14:59:53;96253.97;;;44.26;13.91
57232;BME280;43488;46.934;8.276;2023-10-13T15:02:21;96256.22;;;43.98;14.00
57232;BME280;43488;46.934;8.276;2023-10-13T15:04:50;96253.97;;;44.10;14.00
57232;BME280;43488;46.934;8.276;2023-10-13T15:07:17;96251.28;;;44.06;14.88
57232;BME280;43488;46.934;8.276;2023-10-13T15:09:46;96257.81;;;44.16;14.95
57232;BME280;43488;46.934;8.276;2023-10-13T15:12:13;96253.63;;;44.57;14.86
57232;BME280;43488;46.934;8.276;2023-10-13T15:14:41;96257.16;;;44.73;14.85
57232;BME280;43488;46.934;8.276;2023-10-13T15:17:10;96254.22;;;44.48;15.15
57232;BME280;43488;46.934;8.276;2023-10-13T15:19:38;96257.47;;;44.14;15.52
57232;BME280;43488;46.934;8.276;2023-10-13T15:22:06;96260.75;;;44.09;15.23
57232;BME280;43488;46.934;8.276;2023-10-13T15:24:34;96255.06;;;43.80;15.25
57232;BME280;43488;46.934;8.276;2023-10-13T15:27:11;96253.59;;;43.39;15.71
57232;BME280;43488;46.934;8.276;2023-10-13T15:29:38;96254.22;;;43.07;15.54
57232;BME280;43488;46.934;8.276;2023-10-13T15:32:06;96254.34;;;42.10;16.20
57232;BME280;43488;46.934;8.276;2023-10-13T15:34:43;96258.03;;;40.32;17.59
57232;BME280;43488;46.934;8.276;2023-10-13T15:37:13;96255.22;;;37.47;20.02
57232;BME280;43488;46.934;8.276;2023-10-13T15:39:42;96253.63;;;35.70;22.24
57232;BME280;43488;46.934;8.276;2023-10-13T15:42:09;96251.25;;;33.96;24.20
57232;BME280;43488;46.934;8.276;2023-10-13T15:44:38;96260.56;;;32.59;26.02
57232;BME280;43488;46.934;8.276;2023-10-13T15:47:09;96251.31;;;31.53;26.94
57232;BME280;43488;46.934;8.276;2023-10-13T15:49:39;96250.63;;;30.48;28.19
57232;BME280;43488;46.934;8.276;2023-10-13T15:52:09;96254.19;;;29.79;29.32
57232;BME280;43488;46.934;8.276;2023-10-13T15:54:37;96260.84;;;29.36;30.16
57232;BME280;43488;46.934;8.276;2023-10-13T15:57:05;96253.88;;;28.72;31.83
57232;BME280;43488;46.934;8.276;2023-10-13T15:59:33;96263.00;;;28.00;34.23
57232;BME280;43488;46.934;8.276;2023-10-13T16:02:04;96265.38;;;27.29;35.59
57232;BME280;43488;46.934;8.276;2023-10-13T16:04:38;96260.28;;;26.75;35.58
57232;BME280;43488;46.934;8.276;2023-10-13T16:07:05;96257.22;;;26.51;35.49
57232;BME280;43488;46.934;8.276;2023-10-13T16:09:36;96268.13;;;26.28;35.59
57232;BME280;43488;46.934;8.276;2023-10-13T16:12:05;96273.59;;;25.97;38.19
57232;BME280;43488;46.934;8.276;2023-10-13T16:14:33;96267.63;;;25.56;39.27
57232;BME280;43488;46.934;8.276;2023-10-13T16:17:02;96266.44;;;25.17;39.96
57232;BME280;43488;46.934;8.276;2023-10-13T16:19:31;96267.31;;;24.90;39.83
57232;BME280;43488;46.934;8.276;2023-10-13T16:21:59;96277.53;;;24.65;39.32
57232;BME280;43488;46.934;8.276;2023-10-13T16:24:26;96275.47;;;24.62;39.84
57232;BME280;43488;46.934;8.276;2023-10-13T16:26:54;96268.41;;;24.39;40.74
57232;BME280;43488;46.934;8.276;2023-10-13T16:29:22;96272.41;;;24.00;42.33
57232;BME280;43488;46.934;8.276;2023-10-13T16:31:50;96269.97;;;23.71;42.90
57232;BME280;43488;46.934;8.276;2023-10-13T16:34:18;96270.22;;;23.56;42.41
57232;BME280;43488;46.934;8.276;2023-10-13T16:36:47;96262.81;;;23.34;43.08
57232;BME280;43488;46.934;8.276;2023-10-13T16:39:15;96269.53;;;23.18;43.98
57232;BME280;43488;46.934;8.276;2023-10-13T16:41:44;96266.13;;;22.93;44.66
57232;BME280;43488;46.934;8.276;2023-10-13T16:44:14;96272.88;;;22.72;45.47
57232;BME280;43488;46.934;8.276;2023-10-13T16:46:43;96273.31;;;22.60;46.73
57232;BME280;43488;46.934;8.276;2023-10-13T16:49:10;96277.44;;;22.53;46.16
57232;BME280;43488;46.934;8.276;2023-10-13T16:51:38;96280.09;;;22.10;47.22
57232;BME280;43488;46.934;8.276;2023-10-13T16:54:07;96277.72;;;21.79;47.24
57232;BME280;43488;46.934;8.276;2023-10-13T16:56:36;96281.31;;;21.70;47.78
57232;BME280;43488;46.934;8.276;2023-10-13T16:59:05;96281.44;;;21.54;48.80
57232;BME280;43488;46.934;8.276;2023-10-13T17:01:34;96277.06;;;21.35;49.23
57232;BME280;43488;46.934;8.276;2023-10-13T17:04:02;96278.25;;;21.18;50.30
57232;BME280;43488;46.934;8.276;2023-10-13T17:06:32;96288.72;;;21.15;50.41
57232;BME280;43488;46.934;8.276;2023-10-13T17:09:00;96292.22;;;21.10;50.21
57232;BME280;43488;46.934;8.276;2023-10-13T17:11:33;96286.00;;;21.20;50.54
57232;BME280;43488;46.934;8.276;2023-10-13T17:14:00;96278.81;;;21.15;50.65
57232;BME280;43488;46.934;8.276;2023-10-13T17:16:30;96279.13;;;21.09;49.89
57232;BME280;43488;46.934;8.276;2023-10-13T17:18:58;96287.50;;;20.97;50.31
57232;BME280;43488;46.934;8.276;2023-10-13T17:21:26;96279.88;;;20.80;50.91
57232;BME280;43488;46.934;8.276;2023-10-13T17:23:58;96291.66;;;20.74;51.04
57232;BME280;43488;46.934;8.276;2023-10-13T17:26:28;96286.16;;;20.60;51.96
57232;BME280;43488;46.934;8.276;2023-10-13T17:28:57;96293.44;;;20.50;52.15
57232;BME280;43488;46.934;8.276;2023-10-13T17:31:30;96290.00;;;20.29;53.57
57232;BME280;43488;46.934;8.276;2023-10-13T17:33:59;96291.94;;;20.08;54.74
57232;BME280;43488;46.934;8.276;2023-10-13T17:36:27;96287.44;;;19.93;55.23
57232;BME280;43488;46.934;8.276;2023-10-13T17:38:56;96295.72;;;19.92;55.39
57232;BME280;43488;46.934;8.276;2023-10-13T17:41:24;96298.16;;;19.83;56.32
57232;BME280;43488;46.934;8.276;2023-10-13T17:43:52;96291.78;;;19.69;57.35
57232;BME280;43488;46.934;8.276;2023-10-13T17:46:19;96295.53;;;19.63;57.57
57232;BME280;43488;46.934;8.276;2023-10-13T17:48:49;96293.66;;;19.68;56.99
57232;BME280;43488;46.934;8.276;2023-10-13T17:51:16;96293.66;;;19.68;55.82
57232;BME280;43488;46.934;8.276;2023-10-13T17:53:44;96292.88;;;19.68;55.52
57232;BME280;43488;46.934;8.276;2023-10-13T17:56:13;96290.97;;;19.78;54.78
57232;BME280;43488;46.934;8.276;2023-10-13T17:58:43;96286.19;;;19.75;54.61
57232;BME280;43488;46.934;8.276;2023-10-13T18:01:15;96294.16;;;19.80;54.33
57232;BME280;43488;46.934;8.276;2023-10-13T18:03:51;96288.06;;;19.70;54.56
57232;BME280;43488;46.934;8.276;2023-10-13T18:06:22;96294.72;;;19.72;54.01
57232;BME280;43488;46.934;8.276;2023-10-13T18:08:52;96297.38;;;19.77;53.92
57232;BME280;43488;46.934;8.276;2023-10-13T18:11:22;96294.16;;;19.55;55.20
57232;BME280;43488;46.934;8.276;2023-10-13T18:13:51;96286.44;;;19.38;55.64
57232;BME280;43488;46.934;8.276;2023-10-13T18:16:22;96284.06;;;19.26;56.23
57232;BME280;43488;46.934;8.276;2023-10-13T18:18:51;96283.25;;;19.16;57.31
57232;BME280;43488;46.934;8.276;2023-10-13T18:21:22;96286.75;;;19.11;57.70
57232;BME280;43488;46.934;8.276;2023-10-13T18:23:52;96273.66;;;19.15;57.98
57232;BME280;43488;46.934;8.276;2023-10-13T18:26:19;96282.22;;;19.12;58.30
57232;BME280;43488;46.934;8.276;2023-10-13T18:28:48;96279.53;;;19.07;57.80
57232;BME280;43488;46.934;8.276;2023-10-13T18:31:21;96265.66;;;19.04;57.78
57232;BME280;43488;46.934;8.276;2023-10-13T18:33:49;96266.16;;;19.01;57.11
57232;BME280;43488;46.934;8.276;2023-10-13T18:36:20;96264.56;;;19.00;56.97
57232;BME280;43488;46.934;8.276;2023-10-13T18:38:51;96261.91;;;18.95;56.76
57232;BME280;43488;46.934;8.276;2023-10-13T18:41:19;96267.75;;;18.92;56.36
57232;BME280;43488;46.934;8.276;2023-10-13T18:43:50;96277.38;;;18.88;56.07
57232;BME280;43488;46.934;8.276;2023-10-13T18:46:19;96274.44;;;18.85;56.26
57232;BME280;43488;46.934;8.276;2023-10-13T18:48:53;96268.53;;;18.72;57.06
57232;BME280;43488;46.934;8.276;2023-10-13T18:51:28;96261.56;;;18.61;57.94
57232;BME280;43488;46.934;8.276;2023-10-13T18:53:59;96263.16;;;18.62;59.23
57232;BME280;43488;46.934;8.276;2023-10-13T18:56:28;96263.41;;;18.56;58.72
57232;BME280;43488;46.934;8.276;2023-10-13T18:58:55;96261.78;;;18.34;59.48
57232;BME280;43488;46.934;8.276;2023-10-13T19:01:26;96272.41;;;18.24;59.99
57232;BME280;43488;46.934;8.276;2023-10-13T19:03:59;96275.53;;;18.06;61.22
57232;BME280;43488;46.934;8.276;2023-10-13T19:06:32;96266.38;;;17.86;62.08
57232;BME280;43488;46.934;8.276;2023-10-13T19:09:01;96268.22;;;17.81;62.12
57232;BME280;43488;46.934;8.276;2023-10-13T19:11:33;96260.41;;;17.69;62.47
57232;BME280;43488;46.934;8.276;2023-10-13T19:14:06;96264.13;;;17.68;62.39
57232;BME280;43488;46.934;8.276;2023-10-13T19:16:40;96263.66;;;17.76;61.33
57232;BME280;43488;46.934;8.276;2023-10-13T19:19:08;96264.44;;;17.72;61.30
57232;BME280;43488;46.934;8.276;2023-10-13T19:21:35;96263.41;;;17.78;60.58
57232;BME280;43488;46.934;8.276;2023-10-13T19:24:06;96272.72;;;17.80;60.20
57232;BME280;43488;46.934;8.276;2023-10-13T19:26:34;96269.28;;;17.80;59.80
57232;BME280;43488;46.934;8.276;2023-10-13T19:29:03;96264.38;;;17.67;61.31
57232;BME280;43488;46.934;8.276;2023-10-13T19:31:33;96272.69;;;17.70;61.30
57232;BME280;43488;46.934;8.276;2023-10-13T19:34:03;96264.94;;;17.69;61.27
57232;BME280;43488;46.934;8.276;2023-10-13T19:36:32;96266.25;;;17.66;60.86
57232;BME280;43488;46.934;8.276;2023-10-13T19:39:02;96264.13;;;17.68;60.61
57232;BME280;43488;46.934;8.276;2023-10-13T19:41:31;96272.34;;;17.61;60.82
57232;BME280;43488;46.934;8.276;2023-10-13T19:44:01;96280.63;;;17.65;60.85
57232;BME280;43488;46.934;8.276;2023-10-13T19:46:34;96276.97;;;17.76;60.72
57232;BME280;43488;46.934;8.276;2023-10-13T19:49:04;96277.41;;;17.63;61.20
57232;BME280;43488;46.934;8.276;2023-10-13T19:51:32;96286.91;;;17.49;62.29
57232;BME280;43488;46.934;8.276;2023-10-13T19:54:01;96290.56;;;17.38;63.39
57232;BME280;43488;46.934;8.276;2023-10-13T19:56:32;96289.56;;;17.17;63.96
57232;BME280;43488;46.934;8.276;2023-10-13T19:59:00;96290.50;;;17.00;64.77
57232;BME280;43488;46.934;8.276;2023-10-13T20:01:31;96288.72;;;16.79;65.58
57232;BME280;43488;46.934;8.276;2023-10-13T20:04:02;96283.72;;;16.83;65.87
57232;BME280;43488;46.934;8.276;2023-10-13T20:06:33;96280.19;;;16.77;66.65
57232;BME280;43488;46.934;8.276;2023-10-13T20:09:00;96280.56;;;16.91;66.41
57232;BME280;43488;46.934;8.276;2023-10-13T20:11:35;96279.56;;;16.97;66.56
57232;BME280;43488;46.934;8.276;2023-10-13T20:14:03;96283.22;;;16.91;67.01
57232;BME280;43488;46.934;8.276;2023-10-13T20:16:31;96288.31;;;16.92;67.53
57232;BME280;43488;46.934;8.276;2023-10-13T20:18:59;96287.09;;;17.05;66.62
57232;BME280;43488;46.934;8.276;2023-10-13T20:21:28;96284.50;;;17.15;65.96
57232;BME280;43488;46.934;8.276;2023-10-13T20:24:01;96282.50;;;16.95;66.85
57232;BME280;43488;46.934;8.276;2023-10-13T20:26:30;96278.06;;;16.74;67.70
57232;BME280;43488;46.934;8.276;2023-10-13T20:28:57;96283.41;;;16.79;67.42
57232;BME280;43488;46.934;8.276;2023-10-13T20:31:25;96291.47;;;16.89;67.06
57232;BME280;43488;46.934;8.276;2023-10-13T20:33:52;96287.47;;;16.87;67.18
57232;BME280;43488;46.934;8.276;2023-10-13T20:36:24;96283.91;;;16.76;67.54
57232;BME280;43488;46.934;8.276;2023-10-13T20:38:52;96273.69;;;16.68;68.02
57232;BME280;43488;46.934;8.276;2023-10-13T20:41:19;96288.31;;;16.65;68.19
57232;BME280;43488;46.934;8.276;2023-10-13T20:43:53;96279.59;;;16.70;67.89
57232;BME280;43488;46.934;8.276;2023-10-13T20:46:22;96274.53;;;16.68;68.13
57232;BME280;43488;46.934;8.276;2023-10-13T20:48:50;96271.56;;;16.65;68.18
57232;BME280;43488;46.934;8.276;2023-10-13T20:51:17;96275.94;;;16.54;67.73
57232;BME280;43488;46.934;8.276;2023-10-13T20:53:44;96276.25;;;16.58;67.63
57232;BME280;43488;46.934;8.276;2023-10-13T20:56:13;96271.38;;;16.49;67.58
57232;BME280;43488;46.934;8.276;2023-10-13T20:58:44;96272.34;;;16.38;68.14
57232;BME280;43488;46.934;8.276;2023-10-13T21:01:15;96269.94;;;16.37;68.21
57232;BME280;43488;46.934;8.276;2023-10-13T21:03:42;96277.06;;;16.36;68.04
57232;BME280;43488;46.934;8.276;2023-10-13T21:06:10;96269.47;;;16.45;66.38
57232;BME280;43488;46.934;8.276;2023-10-13T21:08:42;96267.63;;;16.45;66.71
57232;BME280;43488;46.934;8.276;2023-10-13T21:11:13;96273.41;;;16.37;66.89
57232;BME280;43488;46.934;8.276;2023-10-13T21:13:42;96271.09;;;16.24;67.42
57232;BME280;43488;46.934;8.276;2023-10-13T21:16:11;96271.91;;;16.25;67.64
57232;BME280;43488;46.934;8.276;2023-10-13T21:18:41;96270.81;;;16.20;67.89
57232;BME280;43488;46.934;8.276;2023-10-13T21:21:11;96275.81;;;16.17;67.67
57232;BME280;43488;46.934;8.276;2023-10-13T21:23:49;96273.50;;;16.26;67.90
57232;BME280;43488;46.934;8.276;2023-10-13T21:26:25;96268.53;;;16.29;68.02
57232;BME280;43488;46.934;8.276;2023-10-13T21:28:53;96275.22;;;16.10;68.16
57232;BME280;43488;46.934;8.276;2023-10-13T21:31:22;96288.78;;;15.91;69.33
57232;BME280;43488;46.934;8.276;2023-10-13T21:33:54;96282.22;;;15.99;69.34
57232;BME280;43488;46.934;8.276;2023-10-13T21:36:23;96276.38;;;15.97;69.50
57232;BME280;43488;46.934;8.276;2023-10-13T21:38:54;96285.69;;;16.00;69.20
57232;BME280;43488;46.934;8.276;2023-10-13T21:41:22;96293.91;;;15.98;68.05
57232;BME280;43488;46.934;8.276;2023-10-13T21:43:53;96295.19;;;15.96;68.58
57232;BME280;43488;46.934;8.276;2023-10-13T21:46:25;96293.63;;;16.00;68.62
57232;BME280;43488;46.934;8.276;2023-10-13T21:48:53;96287.44;;;15.72;67.16
57232;BME280;43488;46.934;8.276;2023-10-13T21:51:22;96277.72;;;15.78;66.24
57232;BME280;43488;46.934;8.276;2023-10-13T21:53:52;96278.59;;;15.83;65.27
57232;BME280;43488;46.934;8.276;2023-10-13T21:56:23;96280.25;;;15.89;65.15
57232;BME280;43488;46.934;8.276;2023-10-13T21:58:57;96293.09;;;15.98;64.19
57232;BME280;43488;46.934;8.276;2023-10-13T22:01:25;96281.84;;;15.90;66.40
57232;BME280;43488;46.934;8.276;2023-10-13T22:04:02;96275.63;;;15.63;68.01
57232;BME280;43488;46.934;8.276;2023-10-13T22:06:38;96278.38;;;15.51;69.49
57232;BME280;43488;46.934;8.276;2023-10-13T22:09:07;96275.56;;;15.41;70.43
57232;BME280;43488;46.934;8.276;2023-10-13T22:11:38;96280.78;;;15.53;69.89
57232;BME280;43488;46.934;8.276;2023-10-13T22:14:07;96273.72;;;15.42;70.07
57232;BME280;43488;46.934;8.276;2023-10-13T22:16:35;96271.00;;;15.36;69.71
57232;BME280;43488;46.934;8.276;2023-10-13T22:19:02;96262.81;;;15.38;69.53
57232;BME280;43488;46.934;8.276;2023-10-13T22:21:30;96266.31;;;15.44;68.07
57232;BME280;43488;46.934;8.276;2023-10-13T22:23:59;96263.19;;;15.47;67.26
57232;BME280;43488;46.934;8.276;2023-10-13T22:26:29;96282.47;;;15.59;66.92
57232;BME280;43488;46.934;8.276;2023-10-13T22:28:58;96276.88;;;15.39;68.68
57232;BME280;43488;46.934;8.276;2023-10-13T22:31:25;96288.13;;;15.29;70.31
57232;BME280;43488;46.934;8.276;2023-10-13T22:33:53;96283.13;;;15.32;70.59
57232;BME280;43488;46.934;8.276;2023-10-13T22:36:22;96272.78;;;15.31;70.37
57232;BME280;43488;46.934;8.276;2023-10-13T22:38:55;96276.06;;;15.38;70.03
57232;BME280;43488;46.934;8.276;2023-10-13T22:41:33;96276.63;;;15.40;69.61
57232;BME280;43488;46.934;8.276;2023-10-13T22:44:01;96279.53;;;15.39;69.73
57232;BME280;43488;46.934;8.276;2023-10-13T22:46:35;96283.53;;;15.41;67.68
57232;BME280;43488;46.934;8.276;2023-10-13T22:49:02;96288.53;;;15.38;67.59
57232;BME280;43488;46.934;8.276;2023-10-13T22:51:29;96292.38;;;15.30;68.25
57232;BME280;43488;46.934;8.276;2023-10-13T22:53:59;96302.66;;;15.26;69.39
57232;BME280;43488;46.934;8.276;2023-10-13T22:56:26;96297.69;;;15.13;70.22
57232;BME280;43488;46.934;8.276;2023-10-13T22:58:53;96292.38;;;15.13;70.49
57232;BME280;43488;46.934;8.276;2023-10-13T23:01:22;96289.09;;;15.06;70.10
57232;BME280;43488;46.934;8.276;2023-10-13T23:03:49;96283.53;;;15.07;70.64
57232;BME280;43488;46.934;8.276;2023-10-13T23:06:25;96285.97;;;15.09;70.65
57232;BME280;43488;46.934;8.276;2023-10-13T23:09:01;96285.47;;;15.12;70.29
57232;BME280;43488;46.934;8.276;2023-10-13T23:11:39;96284.28;;;15.20;68.96
57232;BME280;43488;46.934;8.276;2023-10-13T23:14:07;96277.78;;;15.27;67.52
57232;BME280;43488;46.934;8.276;2023-10-13T23:16:39;96279.44;;;15.33;66.94
57232;BME280;43488;46.934;8.276;2023-10-13T23:19:07;96279.53;;;15.39;67.46
57232;BME280;43488;46.934;8.276;2023-10-13T23:21:36;96282.88;;;15.34;68.25
57232;BME280;43488;46.934;8.276;2023-10-13T23:24:05;96282.09;;;15.33;68.62
57232;BME280;43488;46.934;8.276;2023-10-13T23:26:37;96293.19;;;15.30;69.59
57232;BME280;43488;46.934;8.276;2023-10-13T23:29:06;96290.94;;;15.22;70.11
57232;BME280;43488;46.934;8.276;2023-10-13T23:31:38;96289.56;;;15.03;71.55
57232;BME280;43488;46.934;8.276;2023-10-13T23:34:05;96286.69;;;15.04;71.26
57232;BME280;43488;46.934;8.276;2023-10-13T23:36:32;96288.69;;;15.14;70.58
57232;BME280;43488;46.934;8.276;2023-10-13T23:39:00;96287.72;;;15.20;70.11
57232;BME280;43488;46.934;8.276;2023-10-13T23:41:37;96277.84;;;15.16;71.00
57232;BME280;43488;46.934;8.276;2023-10-13T23:44:09;96276.63;;;15.23;71.16
57232;BME280;43488;46.934;8.276;2023-10-13T23:46:42;96278.88;;;15.15;72.33
57232;BME280;43488;46.934;8.276;2023-10-13T23:49:14;96275.75;;;15.18;72.30
57232;BME280;43488;46.934;8.276;2023-10-13T23:51:46;96281.94;;;15.06;72.57
57232;BME280;43488;46.934;8.276;2023-10-13T23:54:20;96269.06;;;14.98;73.28
57232;BME280;43488;46.934;8.276;2023-10-13T23:56:48;96274.22;;;15.05;73.83
57232;BME280;43488;46.934;8.276;2023-10-13T23:59:19;96282.19;;;15.05;73.84
